sensor_id;sensor_type;location;lat;lon;timestamp;P1;durP1;ratioP1;P2;durP2;ratioP2
3777;SDS011;1904;50.076;8.660;2022-12-15T00:01:41;27.15;;;17.05;;
3777;SDS011;1904;50.076;8.660;2022-12-15T00:04:33;28.42;;;17.73;;
3777;SDS011;1904;50.076;8.660;2022-12-15T00:10:24;30.65;;;16.45;;
3777;SDS011;1904;50.076;8.660;2022-12-15T00:13:10;27.15;;;16.15;;
3777;SDS011;1904;50.076;8.660;2022-12-15T00:15:58;29.35;;;17.20;;
3777;SDS011;1904;50.076;8.660;2022-12-15T00:18:57;33.42;;;16.98;;
3777;SDS011;1904;50.076;8.660;2022-12-15T00:21:41;28.05;;;17.38;;
3777;SDS011;1904;50.076;8.660;2022-12-15T00:27:40;27.52;;;16.13;;
3777;SDS011;1904;50.076;8.660;2022-12-15T00:30:24;27.30;;;16.00;;
3777;SDS011;1904;50.076;8.660;2022-12-15T00:33:10;25.73;;;15.40;;
3777;SDS011;1904;50.076;8.660;2022-12-15T00:36:10;28.30;;;15.25;;
3777;SDS011;1904;50.076;8.660;2022-12-15T00:38:58;31.90;;;16.30;;
3777;SDS011;1904;50.076;8.660;2022-12-15T00:41:28;30.20;;;16.33;;
3777;SDS011;1904;50.076;8.660;2022-12-15T00:44:04;31.85;;;16.23;;
3777;SDS011;1904;50.076;8.660;2022-12-15T00:46:30;31.70;;;15.98;;
3777;SDS011;1904;50.076;8.660;2022-12-15T00:49:28;28.92;;;16.58;;
3777;SDS011;1904;50.076;8.660;2022-12-15T00:52:16;25.00;;;16.15;;
3777;SDS011;1904;50.076;8.660;2022-12-15T00:55:16;24.25;;;14.80;;
3777;SDS011;1904;50.076;8.660;2022-12-15T01:04:58;26.38;;;15.65;;
3777;SDS011;1904;50.076;8.660;2022-12-15T01:10:52;29.63;;;16.05;;
3777;SDS011;1904;50.076;8.660;2022-12-15T01:17:10;27.25;;;15.27;;
3777;SDS011;1904;50.076;8.660;2022-12-15T01:20:04;24.58;;;15.65;;
3777;SDS011;1904;50.076;8.660;2022-12-15T01:26:04;26.98;;;15.05;;
3777;SDS011;1904;50.076;8.660;2022-12-15T01:28:34;25.38;;;14.95;;
3777;SDS011;1904;50.076;8.660;2022-12-15T01:31:10;25.92;;;15.38;;
3777;SDS011;1904;50.076;8.660;2022-12-15T01:33:40;32.03;;;15.73;;
3777;SDS011;1904;50.076;8.660;2022-12-15T01:36:10;30.50;;;16.35;;
3777;SDS011;1904;50.076;8.660;2022-12-15T01:38:36;26.25;;;15.45;;
3777;SDS011;1904;50.076;8.660;2022-12-15T01:50:38;26.08;;;15.80;;
3777;SDS011;1904;50.076;8.660;2022-12-15T01:56:36;25.58;;;14.93;;
3777;SDS011;1904;50.076;8.660;2022-12-15T02:02:16;24.52;;;15.35;;
3777;SDS011;1904;50.076;8.660;2022-12-15T02:04:45;22.05;;;14.63;;
3777;SDS011;1904;50.076;8.660;2022-12-15T02:07:16;23.63;;;14.63;;
3777;SDS011;1904;50.076;8.660;2022-12-15T02:16:32;24.65;;;15.40;;
3777;SDS011;1904;50.076;8.660;2022-12-15T02:28:38;22.52;;;14.45;;
3777;SDS011;1904;50.076;8.660;2022-12-15T02:37:07;22.30;;;14.02;;
3777;SDS011;1904;50.076;8.660;2022-12-15T02:39:46;25.38;;;14.65;;
3777;SDS011;1904;50.076;8.660;2022-12-15T02:45:05;22.48;;;13.90;;
3777;SDS011;1904;50.076;8.660;2022-12-15T02:53:35;28.77;;;15.60;;
3777;SDS011;1904;50.076;8.660;2022-12-15T02:56:14;23.40;;;14.93;;
3777;SDS011;1904;50.076;8.660;2022-12-15T03:01:43;23.10;;;13.70;;
3777;SDS011;1904;50.076;8.660;2022-12-15T03:04:22;23.40;;;14.50;;
3777;SDS011;1904;50.076;8.660;2022-12-15T03:06:57;25.58;;;15.38;;
3777;SDS011;1904;50.076;8.660;2022-12-15T03:09:25;29.52;;;17.02;;
3777;SDS011;1904;50.076;8.660;2022-12-15T03:11:50;24.40;;;15.03;;
3777;SDS011;1904;50.076;8.660;2022-12-15T03:14:16;28.13;;;15.67;;
3777;SDS011;1904;50.076;8.660;2022-12-15T03:16:46;25.87;;;14.53;;
3777;SDS011;1904;50.076;8.660;2022-12-15T03:19:16;32.03;;;15.30;;
3777;SDS011;1904;50.076;8.660;2022-12-15T03:21:42;26.05;;;15.40;;
3777;SDS011;1904;50.076;8.660;2022-12-15T03:24:10;25.03;;;16.00;;
3777;SDS011;1904;50.076;8.660;2022-12-15T03:26:40;23.42;;;16.13;;
3777;SDS011;1904;50.076;8.660;2022-12-15T03:29:07;23.45;;;15.57;;
3777;SDS011;1904;50.076;8.660;2022-12-15T03:31:40;29.23;;;16.65;;
3777;SDS011;1904;50.076;8.660;2022-12-15T03:34:10;24.83;;;15.35;;
3777;SDS011;1904;50.076;8.660;2022-12-15T03:36:40;25.20;;;16.40;;
3777;SDS011;1904;50.076;8.660;2022-12-15T03:39:06;25.92;;;17.00;;
3777;SDS011;1904;50.076;8.660;2022-12-15T03:41:40;25.27;;;16.10;;
3777;SDS011;1904;50.076;8.660;2022-12-15T03:44:10;26.92;;;16.90;;
3777;SDS011;1904;50.076;8.660;2022-12-15T03:46:36;29.45;;;16.67;;
3777;SDS011;1904;50.076;8.660;2022-12-15T03:49:10;25.93;;;16.70;;
3777;SDS011;1904;50.076;8.660;2022-12-15T03:51:40;30.10;;;17.05;;
3777;SDS011;1904;50.076;8.660;2022-12-15T03:57:10;30.20;;;16.30;;
3777;SDS011;1904;50.076;8.660;2022-12-15T04:08:40;32.85;;;16.63;;
3777;SDS011;1904;50.076;8.660;2022-12-15T04:11:10;26.77;;;16.27;;
3777;SDS011;1904;50.076;8.660;2022-12-15T04:13:42;27.65;;;17.08;;
3777;SDS011;1904;50.076;8.660;2022-12-15T04:16:08;30.47;;;16.90;;
3777;SDS011;1904;50.076;8.660;2022-12-15T04:18:40;35.58;;;19.27;;
3777;SDS011;1904;50.076;8.660;2022-12-15T04:21:10;29.05;;;17.60;;
3777;SDS011;1904;50.076;8.660;2022-12-15T04:23:40;31.17;;;16.90;;
3777;SDS011;1904;50.076;8.660;2022-12-15T04:26:28;29.45;;;17.70;;
3777;SDS011;1904;50.076;8.660;2022-12-15T04:29:16;25.55;;;16.55;;
3777;SDS011;1904;50.076;8.660;2022-12-15T04:32:00;38.17;;;18.85;;
3777;SDS011;1904;50.076;8.660;2022-12-15T04:34:44;27.10;;;16.70;;
3777;SDS011;1904;50.076;8.660;2022-12-15T04:37:28;31.48;;;18.02;;
3777;SDS011;1904;50.076;8.660;2022-12-15T04:40:13;30.15;;;17.75;;
3777;SDS011;1904;50.076;8.660;2022-12-15T04:42:59;30.73;;;17.33;;
3777;SDS011;1904;50.076;8.660;2022-12-15T04:45:47;30.90;;;18.42;;
3777;SDS011;1904;50.076;8.660;2022-12-15T04:48:31;29.98;;;17.65;;
3777;SDS011;1904;50.076;8.660;2022-12-15T04:51:17;38.58;;;18.50;;
3777;SDS011;1904;50.076;8.660;2022-12-15T04:54:17;30.98;;;17.95;;
3777;SDS011;1904;50.076;8.660;2022-12-15T04:57:01;30.55;;;17.58;;
3777;SDS011;1904;50.076;8.660;2022-12-15T04:59:45;28.50;;;18.60;;
3777;SDS011;1904;50.076;8.660;2022-12-15T05:02:29;30.50;;;18.08;;
3777;SDS011;1904;50.076;8.660;2022-12-15T05:05:13;33.15;;;19.10;;
3777;SDS011;1904;50.076;8.660;2022-12-15T05:07:58;30.50;;;18.83;;
3777;SDS011;1904;50.076;8.660;2022-12-15T05:10:42;28.58;;;16.80;;
3777;SDS011;1904;50.076;8.660;2022-12-15T05:13:26;29.63;;;18.10;;
3777;SDS011;1904;50.076;8.660;2022-12-15T05:16:11;30.13;;;19.00;;
3777;SDS011;1904;50.076;8.660;2022-12-15T05:18:55;32.83;;;18.90;;
3777;SDS011;1904;50.076;8.660;2022-12-15T05:21:39;28.13;;;17.65;;
3777;SDS011;1904;50.076;8.660;2022-12-15T05:24:24;30.35;;;18.77;;
3777;SDS011;1904;50.076;8.660;2022-12-15T05:27:08;29.77;;;17.50;;
3777;SDS011;1904;50.076;8.660;2022-12-15T05:30:00;33.47;;;18.70;;
3777;SDS011;1904;50.076;8.660;2022-12-15T05:33:03;28.67;;;18.08;;
3777;SDS011;1904;50.076;8.660;2022-12-15T05:35:30;30.27;;;18.10;;
3777;SDS011;1904;50.076;8.660;2022-12-15T05:38:12;34.45;;;17.90;;
3777;SDS011;1904;50.076;8.660;2022-12-15T05:47:22;27.85;;;17.63;;
3777;SDS011;1904;50.076;8.660;2022-12-15T06:05:42;30.15;;;18.90;;
3777;SDS011;1904;50.076;8.660;2022-12-15T06:08:12;30.73;;;17.27;;
3777;SDS011;1904;50.076;8.660;2022-12-15T06:14:00;30.35;;;18.15;;
3777;SDS011;1904;50.076;8.660;2022-12-15T06:16:26;28.40;;;17.63;;
3777;SDS011;1904;50.076;8.660;2022-12-15T06:18:53;32.50;;;18.23;;
3777;SDS011;1904;50.076;8.660;2022-12-15T06:24:08;30.25;;;18.70;;
3777;SDS011;1904;50.076;8.660;2022-12-15T06:26:35;28.48;;;18.30;;
3777;SDS011;1904;50.076;8.660;2022-12-15T06:35:43;39.35;;;19.35;;
3777;SDS011;1904;50.076;8.660;2022-12-15T06:38:13;37.53;;;20.85;;
3777;SDS011;1904;50.076;8.660;2022-12-15T06:53:49;39.65;;;23.30;;
3777;SDS011;1904;50.076;8.660;2022-12-15T06:59:01;43.15;;;23.42;;
3777;SDS011;1904;50.076;8.660;2022-12-15T07:01:31;40.50;;;22.17;;
3777;SDS011;1904;50.076;8.660;2022-12-15T07:06:46;41.92;;;22.48;;
3777;SDS011;1904;50.076;8.660;2022-12-15T07:09:13;42.22;;;20.95;;
3777;SDS011;1904;50.076;8.660;2022-12-15T07:11:49;40.47;;;20.95;;
3777;SDS011;1904;50.076;8.660;2022-12-15T07:23:25;35.60;;;19.33;;
3777;SDS011;1904;50.076;8.660;2022-12-15T07:31:49;38.63;;;19.02;;
3777;SDS011;1904;50.076;8.660;2022-12-15T07:34:19;32.80;;;17.73;;
3777;SDS011;1904;50.076;8.660;2022-12-15T07:36:49;38.35;;;19.60;;
3777;SDS011;1904;50.076;8.660;2022-12-15T07:39:19;33.15;;;17.10;;
3777;SDS011;1904;50.076;8.660;2022-12-15T07:41:49;33.92;;;18.10;;
3777;SDS011;1904;50.076;8.660;2022-12-15T07:44:25;32.75;;;16.67;;
3777;SDS011;1904;50.076;8.660;2022-12-15T07:46:50;31.38;;;17.58;;
3777;SDS011;1904;50.076;8.660;2022-12-15T07:49:25;34.63;;;17.33;;
3777;SDS011;1904;50.076;8.660;2022-12-15T07:51:55;35.25;;;18.00;;
3777;SDS011;1904;50.076;8.660;2022-12-15T07:54:25;32.40;;;17.90;;
3777;SDS011;1904;50.076;8.660;2022-12-15T07:56:55;35.92;;;17.55;;
3777;SDS011;1904;50.076;8.660;2022-12-15T07:59:25;34.20;;;18.00;;
3777;SDS011;1904;50.076;8.660;2022-12-15T08:01:50;34.47;;;16.60;;
3777;SDS011;1904;50.076;8.660;2022-12-15T08:04:17;33.88;;;18.15;;
3777;SDS011;1904;50.076;8.660;2022-12-15T08:06:49;32.60;;;17.10;;
3777;SDS011;1904;50.076;8.660;2022-12-15T08:09:19;32.22;;;16.08;;
3777;SDS011;1904;50.076;8.660;2022-12-15T08:11:45;29.85;;;16.45;;
3777;SDS011;1904;50.076;8.660;2022-12-15T08:14:19;34.47;;;18.50;;
3777;SDS011;1904;50.076;8.660;2022-12-15T08:16:55;34.17;;;17.45;;
3777;SDS011;1904;50.076;8.660;2022-12-15T08:19:20;38.22;;;19.00;;
3777;SDS011;1904;50.076;8.660;2022-12-15T08:21:49;36.07;;;18.33;;
3777;SDS011;1904;50.076;8.660;2022-12-15T08:24:19;33.22;;;16.90;;
3777;SDS011;1904;50.076;8.660;2022-12-15T08:26:45;34.53;;;17.77;;
3777;SDS011;1904;50.076;8.660;2022-12-15T08:29:19;36.65;;;18.38;;
3777;SDS011;1904;50.076;8.660;2022-12-15T08:31:49;32.70;;;17.15;;
3777;SDS011;1904;50.076;8.660;2022-12-15T08:34:19;30.48;;;16.40;;
3777;SDS011;1904;50.076;8.660;2022-12-15T08:36:49;35.05;;;17.02;;
3777;SDS011;1904;50.076;8.660;2022-12-15T08:39:19;31.02;;;16.60;;
3777;SDS011;1904;50.076;8.660;2022-12-15T08:41:49;30.48;;;16.35;;
3777;SDS011;1904;50.076;8.660;2022-12-15T08:44:15;32.03;;;16.80;;
3777;SDS011;1904;50.076;8.660;2022-12-15T08:46:43;31.23;;;16.55;;
3777;SDS011;1904;50.076;8.660;2022-12-15T08:49:09;36.03;;;17.92;;
3777;SDS011;1904;50.076;8.660;2022-12-15T08:51:34;33.67;;;17.53;;
3777;SDS011;1904;50.076;8.660;2022-12-15T08:54:19;34.00;;;17.80;;
3777;SDS011;1904;50.076;8.660;2022-12-15T08:56:49;30.15;;;16.55;;
3777;SDS011;1904;50.076;8.660;2022-12-15T08:59:19;34.00;;;18.00;;
3777;SDS011;1904;50.076;8.660;2022-12-15T09:01:49;34.85;;;18.80;;
3777;SDS011;1904;50.076;8.660;2022-12-15T09:04:19;32.60;;;17.08;;
3777;SDS011;1904;50.076;8.660;2022-12-15T09:06:49;36.28;;;18.67;;
3777;SDS011;1904;50.076;8.660;2022-12-15T09:09:25;31.38;;;17.42;;
3777;SDS011;1904;50.076;8.660;2022-12-15T09:12:01;37.60;;;18.55;;
3777;SDS011;1904;50.076;8.660;2022-12-15T09:14:26;30.17;;;17.63;;
3777;SDS011;1904;50.076;8.660;2022-12-15T09:19:39;34.55;;;19.10;;
3777;SDS011;1904;50.076;8.660;2022-12-15T09:22:07;33.00;;;18.30;;
3777;SDS011;1904;50.076;8.660;2022-12-15T09:24:32;32.63;;;17.83;;
3777;SDS011;1904;50.076;8.660;2022-12-15T09:27:01;35.40;;;18.83;;
3777;SDS011;1904;50.076;8.660;2022-12-15T09:32:44;40.58;;;18.35;;
3777;SDS011;1904;50.076;8.660;2022-12-15T09:35:19;36.23;;;17.57;;
3777;SDS011;1904;50.076;8.660;2022-12-15T09:37:49;29.73;;;16.80;;
3777;SDS011;1904;50.076;8.660;2022-12-15T09:40:25;30.10;;;16.75;;
3777;SDS011;1904;50.076;8.660;2022-12-15T09:42:55;31.35;;;17.63;;
3777;SDS011;1904;50.076;8.660;2022-12-15T09:45:23;32.72;;;17.25;;
3777;SDS011;1904;50.076;8.660;2022-12-15T09:50:42;36.90;;;18.25;;
3777;SDS011;1904;50.076;8.660;2022-12-15T09:53:12;26.70;;;15.90;;
3777;SDS011;1904;50.076;8.660;2022-12-15T09:55:44;29.25;;;16.67;;
3777;SDS011;1904;50.076;8.660;2022-12-15T09:58:40;30.05;;;16.50;;
3777;SDS011;1904;50.076;8.660;2022-12-15T10:15:57;33.80;;;17.48;;
3777;SDS011;1904;50.076;8.660;2022-12-15T10:21:49;31.00;;;15.85;;
3777;SDS011;1904;50.076;8.660;2022-12-15T10:24:26;30.92;;;16.58;;
3777;SDS011;1904;50.076;8.660;2022-12-15T10:35:47;32.60;;;17.23;;
3777;SDS011;1904;50.076;8.660;2022-12-15T10:38:26;29.02;;;17.05;;
3777;SDS011;1904;50.076;8.660;2022-12-15T10:41:13;30.15;;;16.00;;
3777;SDS011;1904;50.076;8.660;2022-12-15T10:43:49;34.58;;;17.35;;
3777;SDS011;1904;50.076;8.660;2022-12-15T10:46:21;33.65;;;16.88;;
3777;SDS011;1904;50.076;8.660;2022-12-15T10:52:01;28.48;;;16.45;;
3777;SDS011;1904;50.076;8.660;2022-12-15T10:54:42;32.35;;;17.35;;
3777;SDS011;1904;50.076;8.660;2022-12-15T11:03:35;29.63;;;17.33;;
3777;SDS011;1904;50.076;8.660;2022-12-15T11:11:55;36.30;;;18.20;;
3777;SDS011;1904;50.076;8.660;2022-12-15T11:14:46;31.35;;;17.50;;
3777;SDS011;1904;50.076;8.660;2022-12-15T11:32:20;33.20;;;16.00;;
3777;SDS011;1904;50.076;8.660;2022-12-15T11:41:37;34.28;;;17.00;;
3777;SDS011;1904;50.076;8.660;2022-12-15T12:07:41;31.05;;;16.02;;
3777;SDS011;1904;50.076;8.660;2022-12-15T12:10:26;33.53;;;16.95;;
3777;SDS011;1904;50.076;8.660;2022-12-15T12:18:42;32.47;;;16.77;;
3777;SDS011;1904;50.076;8.660;2022-12-15T12:21:11;36.45;;;17.77;;
3777;SDS011;1904;50.076;8.660;2022-12-15T12:23:44;32.65;;;17.02;;
3777;SDS011;1904;50.076;8.660;2022-12-15T12:34:34;31.67;;;16.52;;
3777;SDS011;1904;50.076;8.660;2022-12-15T12:51:55;32.28;;;16.25;;
3777;SDS011;1904;50.076;8.660;2022-12-15T13:20:47;31.20;;;15.82;;
3777;SDS011;1904;50.076;8.660;2022-12-15T13:44:34;34.45;;;17.55;;
3777;SDS011;1904;50.076;8.660;2022-12-15T13:50:02;30.60;;;15.70;;
3777;SDS011;1904;50.076;8.660;2022-12-15T13:52:51;35.15;;;16.20;;
3777;SDS011;1904;50.076;8.660;2022-12-15T13:55:23;33.90;;;17.13;;
3777;SDS011;1904;50.076;8.660;2022-12-15T13:57:54;33.13;;;17.10;;
3777;SDS011;1904;50.076;8.660;2022-12-15T14:00:37;30.45;;;15.00;;
3777;SDS011;1904;50.076;8.660;2022-12-15T14:03:11;29.80;;;15.60;;
3777;SDS011;1904;50.076;8.660;2022-12-15T14:05:37;34.63;;;17.20;;
3777;SDS011;1904;50.076;8.660;2022-12-15T14:08:11;37.05;;;17.23;;
3777;SDS011;1904;50.076;8.660;2022-12-15T14:15:57;30.48;;;14.98;;
3777;SDS011;1904;50.076;8.660;2022-12-15T14:21:16;35.70;;;15.20;;
3777;SDS011;1904;50.076;8.660;2022-12-15T14:24:04;34.65;;;16.27;;
3777;SDS011;1904;50.076;8.660;2022-12-15T14:26:56;33.92;;;14.90;;
3777;SDS011;1904;50.076;8.660;2022-12-15T14:29:25;29.95;;;16.00;;
3777;SDS011;1904;50.076;8.660;2022-12-15T14:31:55;31.45;;;15.48;;
3777;SDS011;1904;50.076;8.660;2022-12-15T14:34:27;31.83;;;15.80;;
3777;SDS011;1904;50.076;8.660;2022-12-15T14:36:58;37.05;;;16.13;;
3777;SDS011;1904;50.076;8.660;2022-12-15T14:39:40;37.03;;;15.65;;
3777;SDS011;1904;50.076;8.660;2022-12-15T14:42:15;34.28;;;16.77;;
3777;SDS011;1904;50.076;8.660;2022-12-15T14:44:49;36.75;;;16.90;;
3777;SDS011;1904;50.076;8.660;2022-12-15T14:50:02;31.55;;;16.42;;
3777;SDS011;1904;50.076;8.660;2022-12-15T14:52:37;34.70;;;17.42;;
3777;SDS011;1904;50.076;8.660;2022-12-15T15:01:27;42.83;;;18.48;;
3777;SDS011;1904;50.076;8.660;2022-12-15T15:04:25;35.83;;;16.63;;
3777;SDS011;1904;50.076;8.660;2022-12-15T15:07:02;35.85;;;16.23;;
3777;SDS011;1904;50.076;8.660;2022-12-15T15:09:32;37.67;;;17.33;;
3777;SDS011;1904;50.076;8.660;2022-12-15T15:12:07;35.05;;;16.27;;
3777;SDS011;1904;50.076;8.660;2022-12-15T15:15:05;36.58;;;17.50;;
3777;SDS011;1904;50.076;8.660;2022-12-15T15:20:26;34.97;;;17.65;;
3777;SDS011;1904;50.076;8.660;2022-12-15T15:28:43;38.83;;;18.63;;
3777;SDS011;1904;50.076;8.660;2022-12-15T15:34:07;37.45;;;18.45;;
3777;SDS011;1904;50.076;8.660;2022-12-15T15:36:38;39.80;;;19.40;;
3777;SDS011;1904;50.076;8.660;2022-12-15T15:39:19;33.65;;;18.30;;
3777;SDS011;1904;50.076;8.660;2022-12-15T15:42:09;40.35;;;19.80;;
3777;SDS011;1904;50.076;8.660;2022-12-15T15:44:36;40.50;;;19.38;;
3777;SDS011;1904;50.076;8.660;2022-12-15T15:47:05;44.58;;;20.08;;
3777;SDS011;1904;50.076;8.660;2022-12-15T15:49:37;37.88;;;18.15;;
3777;SDS011;1904;50.076;8.660;2022-12-15T15:58:13;36.90;;;19.23;;
3777;SDS011;1904;50.076;8.660;2022-12-15T16:00:43;40.95;;;20.15;;
3777;SDS011;1904;50.076;8.660;2022-12-15T16:03:13;40.00;;;20.23;;
3777;SDS011;1904;50.076;8.660;2022-12-15T16:05:44;38.10;;;19.30;;
3777;SDS011;1904;50.076;8.660;2022-12-15T16:11:23;37.42;;;18.58;;
3777;SDS011;1904;50.076;8.660;2022-12-15T16:16:43;40.50;;;21.17;;
3777;SDS011;1904;50.076;8.660;2022-12-15T16:19:13;39.75;;;20.77;;
3777;SDS011;1904;50.076;8.660;2022-12-15T16:21:55;47.00;;;20.98;;
3777;SDS011;1904;50.076;8.660;2022-12-15T16:24:37;40.00;;;21.02;;
3777;SDS011;1904;50.076;8.660;2022-12-15T16:27:03;38.20;;;20.55;;
3777;SDS011;1904;50.076;8.660;2022-12-15T16:29:31;45.80;;;22.87;;
3777;SDS011;1904;50.076;8.660;2022-12-15T16:35:02;38.97;;;19.88;;
3777;SDS011;1904;50.076;8.660;2022-12-15T16:37:44;44.05;;;20.83;;
3777;SDS011;1904;50.076;8.660;2022-12-15T16:40:14;41.92;;;20.52;;
3777;SDS011;1904;50.076;8.660;2022-12-15T16:42:57;38.15;;;19.83;;
3777;SDS011;1904;50.076;8.660;2022-12-15T16:45:31;42.67;;;21.15;;
3777;SDS011;1904;50.076;8.660;2022-12-15T16:48:08;40.35;;;20.95;;
3777;SDS011;1904;50.076;8.660;2022-12-15T16:53:13;42.75;;;20.70;;
3777;SDS011;1904;50.076;8.660;2022-12-15T17:01:39;40.67;;;20.77;;
3777;SDS011;1904;50.076;8.660;2022-12-15T17:07:14;44.72;;;21.85;;
3777;SDS011;1904;50.076;8.660;2022-12-15T17:09:44;40.05;;;20.23;;
3777;SDS011;1904;50.076;8.660;2022-12-15T17:12:14;39.33;;;20.23;;
3777;SDS011;1904;50.076;8.660;2022-12-15T17:14:42;40.30;;;20.17;;
3777;SDS011;1904;50.076;8.660;2022-12-15T17:17:26;41.53;;;20.60;;
3777;SDS011;1904;50.076;8.660;2022-12-15T17:19:56;38.72;;;20.10;;
3777;SDS011;1904;50.076;8.660;2022-12-15T17:22:21;40.40;;;20.55;;
3777;SDS011;1904;50.076;8.660;2022-12-15T17:24:50;39.90;;;19.98;;
3777;SDS011;1904;50.076;8.660;2022-12-15T17:27:26;42.75;;;21.75;;
3777;SDS011;1904;50.076;8.660;2022-12-15T17:29:54;40.92;;;20.25;;
3777;SDS011;1904;50.076;8.660;2022-12-15T17:32:26;38.40;;;19.40;;
3777;SDS011;1904;50.076;8.660;2022-12-15T17:34:56;37.35;;;19.98;;
3777;SDS011;1904;50.076;8.660;2022-12-15T17:37:26;40.08;;;19.45;;
3777;SDS011;1904;50.076;8.660;2022-12-15T17:40:12;37.17;;;19.25;;
3777;SDS011;1904;50.076;8.660;2022-12-15T17:42:40;40.42;;;19.88;;
3777;SDS011;1904;50.076;8.660;2022-12-15T17:45:17;36.80;;;19.93;;
3777;SDS011;1904;50.076;8.660;2022-12-15T17:47:56;41.10;;;20.33;;
3777;SDS011;1904;50.076;8.660;2022-12-15T17:50:21;35.83;;;19.15;;
3777;SDS011;1904;50.076;8.660;2022-12-15T17:52:50;37.30;;;18.63;;
3777;SDS011;1904;50.076;8.660;2022-12-15T17:55:20;39.20;;;20.30;;
3777;SDS011;1904;50.076;8.660;2022-12-15T17:57:50;35.25;;;19.10;;
3777;SDS011;1904;50.076;8.660;2022-12-15T18:02:56;40.42;;;18.75;;
3777;SDS011;1904;50.076;8.660;2022-12-15T18:05:27;36.72;;;18.88;;
3777;SDS011;1904;50.076;8.660;2022-12-15T18:07:58;36.40;;;19.17;;
3777;SDS011;1904;50.076;8.660;2022-12-15T18:13:48;35.30;;;19.33;;
3777;SDS011;1904;50.076;8.660;2022-12-15T18:16:14;35.07;;;19.20;;
3777;SDS011;1904;50.076;8.660;2022-12-15T18:27:27;36.20;;;18.77;;
3777;SDS011;1904;50.076;8.660;2022-12-15T18:30:12;36.70;;;18.85;;
3777;SDS011;1904;50.076;8.660;2022-12-15T18:36:01;38.17;;;19.90;;
3777;SDS011;1904;50.076;8.660;2022-12-15T18:38:27;34.47;;;19.53;;
3777;SDS011;1904;50.076;8.660;2022-12-15T18:43:57;34.95;;;18.00;;
3777;SDS011;1904;50.076;8.660;2022-12-15T18:46:32;37.67;;;19.43;;
3777;SDS011;1904;50.076;8.660;2022-12-15T19:01:15;40.72;;;18.45;;
3777;SDS011;1904;50.076;8.660;2022-12-15T19:03:56;36.90;;;18.90;;
3777;SDS011;1904;50.076;8.660;2022-12-15T19:09:20;37.38;;;19.08;;
3777;SDS011;1904;50.076;8.660;2022-12-15T19:18:21;37.53;;;18.10;;
3777;SDS011;1904;50.076;8.660;2022-12-15T19:27:21;33.85;;;17.65;;
3777;SDS011;1904;50.076;8.660;2022-12-15T19:35:56;32.40;;;17.10;;
3777;SDS011;1904;50.076;8.660;2022-12-15T19:50:33;30.73;;;16.25;;
3777;SDS011;1904;50.076;8.660;2022-12-15T19:55:39;33.25;;;17.92;;
3777;SDS011;1904;50.076;8.660;2022-12-15T20:00:57;29.83;;;16.10;;
3777;SDS011;1904;50.076;8.660;2022-12-15T20:06:05;28.90;;;16.65;;
3777;SDS011;1904;50.076;8.660;2022-12-15T20:08:38;29.02;;;15.50;;
3777;SDS011;1904;50.076;8.660;2022-12-15T20:11:15;28.85;;;15.82;;
3777;SDS011;1904;50.076;8.660;2022-12-15T20:13:56;27.92;;;15.43;;
3777;SDS011;1904;50.076;8.660;2022-12-15T20:16:22;30.20;;;15.52;;
3777;SDS011;1904;50.076;8.660;2022-12-15T20:18:52;28.73;;;15.30;;
3777;SDS011;1904;50.076;8.660;2022-12-15T20:21:27;26.75;;;14.65;;
3777;SDS011;1904;50.076;8.660;2022-12-15T20:24:10;30.10;;;15.18;;
3777;SDS011;1904;50.076;8.660;2022-12-15T20:26:44;24.75;;;13.85;;
3777;SDS011;1904;50.076;8.660;2022-12-15T20:29:24;26.20;;;14.68;;
3777;SDS011;1904;50.076;8.660;2022-12-15T20:31:52;24.33;;;13.27;;
3777;SDS011;1904;50.076;8.660;2022-12-15T20:37:22;22.45;;;12.05;;
3777;SDS011;1904;50.076;8.660;2022-12-15T20:40:14;23.67;;;12.65;;
3777;SDS011;1904;50.076;8.660;2022-12-15T20:42:50;20.63;;;11.73;;
3777;SDS011;1904;50.076;8.660;2022-12-15T20:57:20;22.98;;;11.60;;
3777;SDS011;1904;50.076;8.660;2022-12-15T20:59:50;20.08;;;11.82;;
3777;SDS011;1904;50.076;8.660;2022-12-15T21:02:32;18.70;;;11.30;;
3777;SDS011;1904;50.076;8.660;2022-12-15T21:04:58;20.55;;;10.73;;
3777;SDS011;1904;50.076;8.660;2022-12-15T21:07:38;24.30;;;10.77;;
3777;SDS011;1904;50.076;8.660;2022-12-15T21:10:08;16.52;;;9.93;;
3777;SDS011;1904;50.076;8.660;2022-12-15T21:12:38;20.33;;;10.93;;
3777;SDS011;1904;50.076;8.660;2022-12-15T21:24:44;19.08;;;10.90;;
3777;SDS011;1904;50.076;8.660;2022-12-15T21:27:14;19.42;;;11.23;;
3777;SDS011;1904;50.076;8.660;2022-12-15T21:29:40;17.30;;;9.95;;
3777;SDS011;1904;50.076;8.660;2022-12-15T21:32:08;18.95;;;10.88;;
3777;SDS011;1904;50.076;8.660;2022-12-15T21:34:44;19.40;;;10.55;;
3777;SDS011;1904;50.076;8.660;2022-12-15T21:37:23;19.33;;;10.77;;
3777;SDS011;1904;50.076;8.660;2022-12-15T21:42:56;21.02;;;11.80;;
3777;SDS011;1904;50.076;8.660;2022-12-15T21:45:26;20.08;;;10.10;;
3777;SDS011;1904;50.076;8.660;2022-12-15T21:48:08;21.85;;;11.38;;
3777;SDS011;1904;50.076;8.660;2022-12-15T21:50:56;21.52;;;11.30;;
3777;SDS011;1904;50.076;8.660;2022-12-15T21:53:26;21.20;;;11.25;;
3777;SDS011;1904;50.076;8.660;2022-12-15T21:55:56;21.85;;;12.13;;
3777;SDS011;1904;50.076;8.660;2022-12-15T21:58:26;21.88;;;10.90;;
3777;SDS011;1904;50.076;8.660;2022-12-15T22:00:58;19.83;;;11.30;;
3777;SDS011;1904;50.076;8.660;2022-12-15T22:03:26;20.67;;;11.80;;
3777;SDS011;1904;50.076;8.660;2022-12-15T22:05:52;19.35;;;10.90;;
3777;SDS011;1904;50.076;8.660;2022-12-15T22:08:26;22.30;;;11.80;;
3777;SDS011;1904;50.076;8.660;2022-12-15T22:11:05;20.85;;;12.05;;
3777;SDS011;1904;50.076;8.660;2022-12-15T22:19:51;22.25;;;12.10;;
3777;SDS011;1904;50.076;8.660;2022-12-15T22:22:17;21.20;;;12.03;;
3777;SDS011;1904;50.076;8.660;2022-12-15T22:30:56;24.02;;;12.85;;
3777;SDS011;1904;50.076;8.660;2022-12-15T22:33:25;21.23;;;11.05;;
3777;SDS011;1904;50.076;8.660;2022-12-15T22:35:56;19.60;;;10.75;;
3777;SDS011;1904;50.076;8.660;2022-12-15T22:38:22;21.45;;;12.02;;
3777;SDS011;1904;50.076;8.660;2022-12-15T22:43:52;19.75;;;11.30;;
3777;SDS011;1904;50.076;8.660;2022-12-15T22:46:20;22.75;;;12.25;;
3777;SDS011;1904;50.076;8.660;2022-12-15T22:48:56;22.27;;;12.18;;
3777;SDS011;1904;50.076;8.660;2022-12-15T22:51:32;17.25;;;10.88;;
3777;SDS011;1904;50.076;8.660;2022-12-15T23:03:09;18.02;;;11.52;;
3777;SDS011;1904;50.076;8.660;2022-12-15T23:08:32;18.25;;;10.52;;
3777;SDS011;1904;50.076;8.660;2022-12-15T23:11:02;18.50;;;10.90;;
3777;SDS011;1904;50.076;8.660;2022-12-15T23:13:47;21.52;;;10.98;;
3777;SDS011;1904;50.076;8.660;2022-12-15T23:16:14;20.67;;;11.37;;
3777;SDS011;1904;50.076;8.660;2022-12-15T23:18:56;22.67;;;10.90;;
3777;SDS011;1904;50.076;8.660;2022-12-15T23:21:32;18.58;;;10.73;;
3777;SDS011;1904;50.076;8.660;2022-12-15T23:23:59;21.33;;;11.20;;
3777;SDS011;1904;50.076;8.660;2022-12-15T23:26:26;17.33;;;10.18;;
3777;SDS011;1904;50.076;8.660;2022-12-15T23:32:14;16.40;;;9.70;;
3777;SDS011;1904;50.076;8.660;2022-12-15T23:34:44;19.25;;;10.38;;
3777;SDS011;1904;50.076;8.660;2022-12-15T23:37:14;18.05;;;9.93;;
3777;SDS011;1904;50.076;8.660;2022-12-15T23:39:50;17.00;;;9.23;;
3777;SDS011;1904;50.076;8.660;2022-12-15T23:42:20;16.73;;;9.98;;
3777;SDS011;1904;50.076;8.660;2022-12-15T23:44:50;14.35;;;9.23;;
3777;SDS011;1904;50.076;8.660;2022-12-15T23:47:20;14.70;;;8.93;;
3777;SDS011;1904;50.076;8.660;2022-12-15T23:49:50;15.60;;;8.57;;
3777;SDS011;1904;50.076;8.660;2022-12-15T23:52:20;14.60;;;8.35;;
3777;SDS011;1904;50.076;8.660;2022-12-15T23:54:50;15.55;;;8.05;;
3777;SDS011;1904;50.076;8.660;2022-12-15T23:57:26;16.42;;;7.95;;
3777;SDS011;1904;50.076;8.660;2022-12-15T23:59:52;13.05;;;8.02;;
